sensor_id;sensor_type;location;lat;lon;timestamp;P1;durP1;ratioP1;P2;durP2;ratioP2
10896;SDS011;5501;51.176;6.470;2023-02-15T00:00:40;22.08;;;12.40;;
10896;SDS011;5501;51.176;6.470;2023-02-15T00:05:41;20.20;;;11.80;;
10896;SDS011;5501;51.176;6.470;2023-02-15T00:10:42;23.55;;;11.55;;
10896;SDS011;5501;51.176;6.470;2023-02-15T00:15:44;18.98;;;10.88;;
10896;SDS011;5501;51.176;6.470;2023-02-15T00:20:45;21.73;;;11.45;;
10896;SDS011;5501;51.176;6.470;2023-02-15T00:25:46;29.77;;;11.88;;
10896;SDS011;5501;51.176;6.470;2023-02-15T00:30:48;22.50;;;13.13;;
10896;SDS011;5501;51.176;6.470;2023-02-15T00:35:55;24.02;;;11.98;;
10896;SDS011;5501;51.176;6.470;2023-02-15T00:40:57;25.20;;;13.35;;
10896;SDS011;5501;51.176;6.470;2023-02-15T00:45:59;23.70;;;11.68;;
10896;SDS011;5501;51.176;6.470;2023-02-15T00:51:01;21.45;;;11.48;;
10896;SDS011;5501;51.176;6.470;2023-02-15T00:56:03;21.85;;;13.23;;
10896;SDS011;5501;51.176;6.470;2023-02-15T01:01:06;21.58;;;12.38;;
10896;SDS011;5501;51.176;6.470;2023-02-15T01:06:08;25.60;;;12.30;;
10896;SDS011;5501;51.176;6.470;2023-02-15T01:11:10;20.70;;;12.05;;
10896;SDS011;5501;51.176;6.470;2023-02-15T01:16:12;23.63;;;13.02;;
10896;SDS011;5501;51.176;6.470;2023-02-15T01:21:14;22.13;;;13.02;;
10896;SDS011;5501;51.176;6.470;2023-02-15T01:26:17;21.75;;;12.77;;
10896;SDS011;5501;51.176;6.470;2023-02-15T01:31:19;26.88;;;13.30;;
10896;SDS011;5501;51.176;6.470;2023-02-15T01:36:21;24.58;;;12.85;;
10896;SDS011;5501;51.176;6.470;2023-02-15T01:41:22;25.98;;;13.25;;
10896;SDS011;5501;51.176;6.470;2023-02-15T01:46:35;21.70;;;12.82;;
10896;SDS011;5501;51.176;6.470;2023-02-15T01:51:38;22.27;;;12.38;;
10896;SDS011;5501;51.176;6.470;2023-02-15T01:56:40;24.77;;;12.23;;
10896;SDS011;5501;51.176;6.470;2023-02-15T02:01:42;34.50;;;14.13;;
10896;SDS011;5501;51.176;6.470;2023-02-15T02:06:45;26.20;;;14.00;;
10896;SDS011;5501;51.176;6.470;2023-02-15T02:11:47;25.05;;;13.07;;
10896;SDS011;5501;51.176;6.470;2023-02-15T02:16:55;29.25;;;13.45;;
10896;SDS011;5501;51.176;6.470;2023-02-15T02:32:32;24.88;;;12.35;;
10896;SDS011;5501;51.176;6.470;2023-02-15T02:37:49;29.33;;;14.13;;
10896;SDS011;5501;51.176;6.470;2023-02-15T02:42:56;23.77;;;11.88;;
10896;SDS011;5501;51.176;6.470;2023-02-15T02:48:11;27.55;;;14.85;;
10896;SDS011;5501;51.176;6.470;2023-02-15T02:53:14;22.92;;;13.15;;
10896;SDS011;5501;51.176;6.470;2023-02-15T02:58:19;25.92;;;13.73;;
10896;SDS011;5501;51.176;6.470;2023-02-15T03:03:25;26.23;;;13.18;;
10896;SDS011;5501;51.176;6.470;2023-02-15T03:08:33;20.13;;;12.10;;
10896;SDS011;5501;51.176;6.470;2023-02-15T03:13:37;26.90;;;14.00;;
10896;SDS011;5501;51.176;6.470;2023-02-15T03:18:46;28.65;;;14.18;;
10896;SDS011;5501;51.176;6.470;2023-02-15T03:23:57;22.08;;;12.27;;
10896;SDS011;5501;51.176;6.470;2023-02-15T03:29:00;25.55;;;13.88;;
10896;SDS011;5501;51.176;6.470;2023-02-15T03:34:04;25.67;;;13.50;;
10896;SDS011;5501;51.176;6.470;2023-02-15T03:39:10;25.08;;;13.25;;
10896;SDS011;5501;51.176;6.470;2023-02-15T03:44:14;24.55;;;12.85;;
10896;SDS011;5501;51.176;6.470;2023-02-15T03:49:21;21.95;;;13.50;;
10896;SDS011;5501;51.176;6.470;2023-02-15T03:54:30;24.63;;;13.32;;
10896;SDS011;5501;51.176;6.470;2023-02-15T03:59:44;24.85;;;13.63;;
10896;SDS011;5501;51.176;6.470;2023-02-15T04:05:11;24.95;;;12.13;;
10896;SDS011;5501;51.176;6.470;2023-02-15T04:10:13;23.73;;;13.25;;
10896;SDS011;5501;51.176;6.470;2023-02-15T04:15:32;25.38;;;13.07;;
10896;SDS011;5501;51.176;6.470;2023-02-15T04:20:53;25.27;;;13.63;;
10896;SDS011;5501;51.176;6.470;2023-02-15T04:26:13;23.85;;;12.68;;
10896;SDS011;5501;51.176;6.470;2023-02-15T04:31:14;24.67;;;12.02;;
10896;SDS011;5501;51.176;6.470;2023-02-15T04:36:16;23.55;;;12.32;;
10896;SDS011;5501;51.176;6.470;2023-02-15T04:41:17;28.02;;;13.48;;
10896;SDS011;5501;51.176;6.470;2023-02-15T04:46:18;23.83;;;12.15;;
10896;SDS011;5501;51.176;6.470;2023-02-15T04:51:20;27.35;;;12.80;;
10896;SDS011;5501;51.176;6.470;2023-02-15T04:56:21;26.50;;;13.02;;
10896;SDS011;5501;51.176;6.470;2023-02-15T05:01:23;22.98;;;12.75;;
10896;SDS011;5501;51.176;6.470;2023-02-15T05:06:24;28.48;;;13.90;;
10896;SDS011;5501;51.176;6.470;2023-02-15T05:11:26;28.05;;;13.23;;
10896;SDS011;5501;51.176;6.470;2023-02-15T05:16:27;25.90;;;13.02;;
10896;SDS011;5501;51.176;6.470;2023-02-15T05:21:29;24.85;;;14.10;;
10896;SDS011;5501;51.176;6.470;2023-02-15T05:26:31;26.10;;;12.57;;
10896;SDS011;5501;51.176;6.470;2023-02-15T05:32:05;21.95;;;12.38;;
10896;SDS011;5501;51.176;6.470;2023-02-15T05:37:06;19.33;;;11.20;;
10896;SDS011;5501;51.176;6.470;2023-02-15T05:42:08;23.20;;;12.75;;
10896;SDS011;5501;51.176;6.470;2023-02-15T05:47:10;28.20;;;13.82;;
10896;SDS011;5501;51.176;6.470;2023-02-15T05:52:11;26.92;;;13.80;;
10896;SDS011;5501;51.176;6.470;2023-02-15T05:57:13;21.50;;;10.40;;
10896;SDS011;5501;51.176;6.470;2023-02-15T06:02:14;25.35;;;12.93;;
10896;SDS011;5501;51.176;6.470;2023-02-15T06:07:16;23.23;;;12.77;;
10896;SDS011;5501;51.176;6.470;2023-02-15T06:12:17;21.48;;;12.40;;
10896;SDS011;5501;51.176;6.470;2023-02-15T06:17:18;26.85;;;11.50;;
10896;SDS011;5501;51.176;6.470;2023-02-15T06:22:20;24.83;;;13.18;;
10896;SDS011;5501;51.176;6.470;2023-02-15T06:27:21;26.23;;;13.63;;
10896;SDS011;5501;51.176;6.470;2023-02-15T06:32:23;24.30;;;12.00;;
10896;SDS011;5501;51.176;6.470;2023-02-15T06:37:24;26.27;;;12.55;;
10896;SDS011;5501;51.176;6.470;2023-02-15T06:42:25;26.00;;;12.80;;
10896;SDS011;5501;51.176;6.470;2023-02-15T06:47:27;26.95;;;12.35;;
10896;SDS011;5501;51.176;6.470;2023-02-15T06:52:28;22.83;;;11.18;;
10896;SDS011;5501;51.176;6.470;2023-02-15T06:57:30;25.45;;;11.93;;
10896;SDS011;5501;51.176;6.470;2023-02-15T07:02:32;23.95;;;12.15;;
10896;SDS011;5501;51.176;6.470;2023-02-15T07:07:33;26.10;;;11.15;;
10896;SDS011;5501;51.176;6.470;2023-02-15T07:12:34;29.15;;;11.93;;
10896;SDS011;5501;51.176;6.470;2023-02-15T07:17:46;20.83;;;11.18;;
10896;SDS011;5501;51.176;6.470;2023-02-15T07:22:48;25.80;;;13.48;;
10896;SDS011;5501;51.176;6.470;2023-02-15T07:27:55;26.17;;;12.50;;
10896;SDS011;5501;51.176;6.470;2023-02-15T07:32:57;25.08;;;12.38;;
10896;SDS011;5501;51.176;6.470;2023-02-15T07:38:17;22.60;;;11.48;;
10896;SDS011;5501;51.176;6.470;2023-02-15T07:43:19;26.35;;;12.48;;
10896;SDS011;5501;51.176;6.470;2023-02-15T07:48:20;27.30;;;11.30;;
10896;SDS011;5501;51.176;6.470;2023-02-15T07:53:25;23.17;;;13.55;;
10896;SDS011;5501;51.176;6.470;2023-02-15T07:58:27;23.73;;;12.57;;
10896;SDS011;5501;51.176;6.470;2023-02-15T08:03:48;25.52;;;13.02;;
10896;SDS011;5501;51.176;6.470;2023-02-15T08:08:50;26.17;;;12.77;;
10896;SDS011;5501;51.176;6.470;2023-02-15T08:13:52;24.45;;;13.02;;
10896;SDS011;5501;51.176;6.470;2023-02-15T08:18:55;23.23;;;12.70;;
10896;SDS011;5501;51.176;6.470;2023-02-15T08:23:57;25.50;;;13.38;;
10896;SDS011;5501;51.176;6.470;2023-02-15T08:28:58;20.38;;;10.45;;
10896;SDS011;5501;51.176;6.470;2023-02-15T08:34:00;20.85;;;11.98;;
10896;SDS011;5501;51.176;6.470;2023-02-15T08:39:03;25.92;;;13.02;;
10896;SDS011;5501;51.176;6.470;2023-02-15T08:44:06;28.10;;;12.65;;
10896;SDS011;5501;51.176;6.470;2023-02-15T08:49:12;25.40;;;11.68;;
10896;SDS011;5501;51.176;6.470;2023-02-15T08:54:14;23.33;;;12.40;;
10896;SDS011;5501;51.176;6.470;2023-02-15T08:59:17;21.17;;;11.55;;
10896;SDS011;5501;51.176;6.470;2023-02-15T09:04:20;18.25;;;12.82;;
10896;SDS011;5501;51.176;6.470;2023-02-15T09:09:21;21.70;;;11.65;;
10896;SDS011;5501;51.176;6.470;2023-02-15T09:14:23;21.70;;;12.02;;
10896;SDS011;5501;51.176;6.470;2023-02-15T09:19:26;24.05;;;12.18;;
10896;SDS011;5501;51.176;6.470;2023-02-15T09:24:27;23.20;;;11.95;;
10896;SDS011;5501;51.176;6.470;2023-02-15T09:29:32;25.75;;;12.60;;
10896;SDS011;5501;51.176;6.470;2023-02-15T09:34:33;20.55;;;11.65;;
10896;SDS011;5501;51.176;6.470;2023-02-15T09:39:35;22.02;;;11.90;;
10896;SDS011;5501;51.176;6.470;2023-02-15T10:05:58;20.65;;;12.30;;
10896;SDS011;5501;51.176;6.470;2023-02-15T10:11:11;21.55;;;11.68;;
10896;SDS011;5501;51.176;6.470;2023-02-15T10:21:48;21.13;;;11.75;;
10896;SDS011;5501;51.176;6.470;2023-02-15T10:26:54;23.70;;;12.23;;
10896;SDS011;5501;51.176;6.470;2023-02-15T10:37:24;20.77;;;11.10;;
10896;SDS011;5501;51.176;6.470;2023-02-15T10:42:32;23.33;;;11.57;;
10896;SDS011;5501;51.176;6.470;2023-02-15T10:58:24;17.08;;;11.00;;
10896;SDS011;5501;51.176;6.470;2023-02-15T11:08:29;21.45;;;10.90;;
10896;SDS011;5501;51.176;6.470;2023-02-15T11:13:33;21.40;;;11.55;;
10896;SDS011;5501;51.176;6.470;2023-02-15T11:18:37;17.30;;;10.35;;
10896;SDS011;5501;51.176;6.470;2023-02-15T11:23:42;18.40;;;10.70;;
10896;SDS011;5501;51.176;6.470;2023-02-15T11:29:21;17.48;;;11.27;;
10896;SDS011;5501;51.176;6.470;2023-02-15T11:34:15;19.50;;;10.38;;
10896;SDS011;5501;51.176;6.470;2023-02-15T11:39:18;19.92;;;9.60;;
10896;SDS011;5501;51.176;6.470;2023-02-15T11:44:31;18.05;;;10.50;;
10896;SDS011;5501;51.176;6.470;2023-02-15T11:49:34;18.90;;;10.88;;
10896;SDS011;5501;51.176;6.470;2023-02-15T11:54:36;21.05;;;10.82;;
10896;SDS011;5501;51.176;6.470;2023-02-15T11:59:42;21.33;;;9.75;;
10896;SDS011;5501;51.176;6.470;2023-02-15T12:04:47;23.75;;;10.73;;
10896;SDS011;5501;51.176;6.470;2023-02-15T12:10:00;16.80;;;9.07;;
10896;SDS011;5501;51.176;6.470;2023-02-15T12:15:06;15.60;;;9.93;;
10896;SDS011;5501;51.176;6.470;2023-02-15T12:35:35;14.48;;;9.48;;
10896;SDS011;5501;51.176;6.470;2023-02-15T12:40:37;17.83;;;9.45;;
10896;SDS011;5501;51.176;6.470;2023-02-15T12:45:39;15.35;;;8.30;;
10896;SDS011;5501;51.176;6.470;2023-02-15T12:50:44;15.95;;;9.65;;
10896;SDS011;5501;51.176;6.470;2023-02-15T12:56:05;14.75;;;9.07;;
10896;SDS011;5501;51.176;6.470;2023-02-15T13:01:17;14.65;;;8.50;;
10896;SDS011;5501;51.176;6.470;2023-02-15T13:06:22;16.33;;;8.80;;
10896;SDS011;5501;51.176;6.470;2023-02-15T13:11:28;16.00;;;9.18;;
10896;SDS011;5501;51.176;6.470;2023-02-15T13:16:36;13.27;;;8.23;;
10896;SDS011;5501;51.176;6.470;2023-02-15T13:21:39;15.55;;;9.20;;
10896;SDS011;5501;51.176;6.470;2023-02-15T13:26:41;15.93;;;8.30;;
10896;SDS011;5501;51.176;6.470;2023-02-15T13:31:46;13.73;;;8.43;;
10896;SDS011;5501;51.176;6.470;2023-02-15T13:36:53;14.30;;;8.75;;
10896;SDS011;5501;51.176;6.470;2023-02-15T13:52:55;15.65;;;8.80;;
10896;SDS011;5501;51.176;6.470;2023-02-15T14:18:42;12.85;;;7.95;;
10896;SDS011;5501;51.176;6.470;2023-02-15T14:34:22;15.43;;;8.05;;
10896;SDS011;5501;51.176;6.470;2023-02-15T14:45:14;14.73;;;8.70;;
10896;SDS011;5501;51.176;6.470;2023-02-15T14:55:38;15.35;;;8.68;;
10896;SDS011;5501;51.176;6.470;2023-02-15T15:00:40;12.02;;;7.82;;
10896;SDS011;5501;51.176;6.470;2023-02-15T15:05:49;17.15;;;8.73;;
10896;SDS011;5501;51.176;6.470;2023-02-15T15:10:51;15.93;;;9.35;;
10896;SDS011;5501;51.176;6.470;2023-02-15T15:15:52;13.48;;;8.25;;
10896;SDS011;5501;51.176;6.470;2023-02-15T15:20:54;22.23;;;8.25;;
10896;SDS011;5501;51.176;6.470;2023-02-15T15:25:56;13.60;;;8.02;;
10896;SDS011;5501;51.176;6.470;2023-02-15T15:36:33;15.48;;;9.05;;
10896;SDS011;5501;51.176;6.470;2023-02-15T15:41:42;16.45;;;8.02;;
10896;SDS011;5501;51.176;6.470;2023-02-15T15:46:50;14.55;;;8.63;;
10896;SDS011;5501;51.176;6.470;2023-02-15T15:51:54;14.13;;;8.18;;
10896;SDS011;5501;51.176;6.470;2023-02-15T15:56:58;15.25;;;8.18;;
10896;SDS011;5501;51.176;6.470;2023-02-15T16:02:04;11.52;;;8.00;;
10896;SDS011;5501;51.176;6.470;2023-02-15T16:12:19;15.50;;;8.00;;
10896;SDS011;5501;51.176;6.470;2023-02-15T16:17:24;14.27;;;8.00;;
10896;SDS011;5501;51.176;6.470;2023-02-15T16:22:26;12.77;;;7.18;;
10896;SDS011;5501;51.176;6.470;2023-02-15T16:27:33;12.88;;;7.35;;
10896;SDS011;5501;51.176;6.470;2023-02-15T16:32:35;12.68;;;7.63;;
10896;SDS011;5501;51.176;6.470;2023-02-15T16:37:37;12.98;;;6.78;;
10896;SDS011;5501;51.176;6.470;2023-02-15T16:42:38;13.88;;;7.55;;
10896;SDS011;5501;51.176;6.470;2023-02-15T16:47:41;11.63;;;8.45;;
10896;SDS011;5501;51.176;6.470;2023-02-15T16:52:44;13.30;;;8.18;;
10896;SDS011;5501;51.176;6.470;2023-02-15T16:57:46;14.40;;;8.52;;
10896;SDS011;5501;51.176;6.470;2023-02-15T17:02:58;13.95;;;8.48;;
10896;SDS011;5501;51.176;6.470;2023-02-15T17:08:12;14.70;;;8.02;;
10896;SDS011;5501;51.176;6.470;2023-02-15T17:13:15;13.27;;;7.68;;
10896;SDS011;5501;51.176;6.470;2023-02-15T17:28:27;15.55;;;10.15;;
10896;SDS011;5501;51.176;6.470;2023-02-15T17:38:33;19.60;;;9.80;;
10896;SDS011;5501;51.176;6.470;2023-02-15T17:43:34;14.05;;;8.40;;
10896;SDS011;5501;51.176;6.470;2023-02-15T17:48:36;17.05;;;9.07;;
10896;SDS011;5501;51.176;6.470;2023-02-15T17:53:38;17.55;;;9.77;;
10896;SDS011;5501;51.176;6.470;2023-02-15T17:58:40;21.70;;;10.32;;
10896;SDS011;5501;51.176;6.470;2023-02-15T18:03:43;16.40;;;9.75;;
10896;SDS011;5501;51.176;6.470;2023-02-15T18:09:03;20.35;;;10.02;;
10896;SDS011;5501;51.176;6.470;2023-02-15T18:14:23;18.95;;;9.20;;
10896;SDS011;5501;51.176;6.470;2023-02-15T18:19:25;24.60;;;9.52;;
10896;SDS011;5501;51.176;6.470;2023-02-15T18:24:27;16.75;;;9.57;;
10896;SDS011;5501;51.176;6.470;2023-02-15T18:29:28;16.75;;;8.82;;
10896;SDS011;5501;51.176;6.470;2023-02-15T18:34:34;19.33;;;8.43;;
10896;SDS011;5501;51.176;6.470;2023-02-15T18:39:38;18.30;;;9.27;;
10896;SDS011;5501;51.176;6.470;2023-02-15T18:44:40;21.67;;;9.63;;
10896;SDS011;5501;51.176;6.470;2023-02-15T18:49:44;16.67;;;8.50;;
10896;SDS011;5501;51.176;6.470;2023-02-15T18:54:46;17.02;;;9.25;;
10896;SDS011;5501;51.176;6.470;2023-02-15T18:59:48;16.70;;;8.50;;
10896;SDS011;5501;51.176;6.470;2023-02-15T19:04:49;15.95;;;8.55;;
10896;SDS011;5501;51.176;6.470;2023-02-15T19:09:54;16.08;;;9.05;;
10896;SDS011;5501;51.176;6.470;2023-02-15T19:14:56;17.25;;;9.73;;
10896;SDS011;5501;51.176;6.470;2023-02-15T19:19:57;17.42;;;9.50;;
10896;SDS011;5501;51.176;6.470;2023-02-15T19:25:00;15.60;;;9.52;;
10896;SDS011;5501;51.176;6.470;2023-02-15T19:30:03;19.33;;;9.00;;
10896;SDS011;5501;51.176;6.470;2023-02-15T19:35:05;17.17;;;9.10;;
10896;SDS011;5501;51.176;6.470;2023-02-15T19:40:06;15.38;;;8.55;;
10896;SDS011;5501;51.176;6.470;2023-02-15T19:45:17;15.68;;;8.63;;
10896;SDS011;5501;51.176;6.470;2023-02-15T19:50:19;15.13;;;7.60;;
10896;SDS011;5501;51.176;6.470;2023-02-15T19:55:31;13.07;;;8.77;;
10896;SDS011;5501;51.176;6.470;2023-02-15T20:00:33;15.32;;;8.98;;
10896;SDS011;5501;51.176;6.470;2023-02-15T20:05:34;17.23;;;9.50;;
10896;SDS011;5501;51.176;6.470;2023-02-15T20:10:38;17.35;;;9.98;;
10896;SDS011;5501;51.176;6.470;2023-02-15T20:15:40;15.82;;;9.45;;
10896;SDS011;5501;51.176;6.470;2023-02-15T20:20:42;24.35;;;10.02;;
10896;SDS011;5501;51.176;6.470;2023-02-15T20:25:44;19.58;;;10.23;;
10896;SDS011;5501;51.176;6.470;2023-02-15T20:30:46;19.67;;;10.45;;
10896;SDS011;5501;51.176;6.470;2023-02-15T20:35:48;21.15;;;10.02;;
10896;SDS011;5501;51.176;6.470;2023-02-15T20:40:50;18.52;;;9.93;;
10896;SDS011;5501;51.176;6.470;2023-02-15T20:46:11;18.42;;;9.20;;
10896;SDS011;5501;51.176;6.470;2023-02-15T20:51:16;20.55;;;9.75;;
10896;SDS011;5501;51.176;6.470;2023-02-15T20:56:19;15.10;;;9.68;;
10896;SDS011;5501;51.176;6.470;2023-02-15T21:01:20;20.67;;;10.30;;
10896;SDS011;5501;51.176;6.470;2023-02-15T21:06:22;20.92;;;10.30;;
10896;SDS011;5501;51.176;6.470;2023-02-15T21:11:23;20.83;;;9.68;;
10896;SDS011;5501;51.176;6.470;2023-02-15T21:16:25;16.45;;;9.55;;
10896;SDS011;5501;51.176;6.470;2023-02-15T21:21:26;17.90;;;9.75;;
10896;SDS011;5501;51.176;6.470;2023-02-15T21:26:28;19.20;;;10.15;;
10896;SDS011;5501;51.176;6.470;2023-02-15T21:31:30;21.58;;;10.02;;
10896;SDS011;5501;51.176;6.470;2023-02-15T21:36:31;19.45;;;9.60;;
10896;SDS011;5501;51.176;6.470;2023-02-15T21:41:33;19.70;;;9.57;;
10896;SDS011;5501;51.176;6.470;2023-02-15T21:52:13;13.45;;;8.55;;
10896;SDS011;5501;51.176;6.470;2023-02-15T21:57:17;18.27;;;9.20;;
10896;SDS011;5501;51.176;6.470;2023-02-15T22:02:28;19.35;;;9.27;;
10896;SDS011;5501;51.176;6.470;2023-02-15T22:07:30;21.25;;;10.32;;
10896;SDS011;5501;51.176;6.470;2023-02-15T22:12:31;20.45;;;9.65;;
10896;SDS011;5501;51.176;6.470;2023-02-15T22:17:33;26.52;;;11.18;;
10896;SDS011;5501;51.176;6.470;2023-02-15T22:22:35;19.13;;;9.55;;
10896;SDS011;5501;51.176;6.470;2023-02-15T22:27:38;18.88;;;9.05;;
10896;SDS011;5501;51.176;6.470;2023-02-15T22:32:39;20.10;;;9.57;;
10896;SDS011;5501;51.176;6.470;2023-02-15T22:37:40;16.65;;;9.48;;
10896;SDS011;5501;51.176;6.470;2023-02-15T22:42:46;13.82;;;8.85;;
10896;SDS011;5501;51.176;6.470;2023-02-15T22:47:49;15.55;;;9.00;;
10896;SDS011;5501;51.176;6.470;2023-02-15T22:52:50;12.77;;;8.32;;
10896;SDS011;5501;51.176;6.470;2023-02-15T22:57:53;30.00;;;9.88;;
10896;SDS011;5501;51.176;6.470;2023-02-15T23:02:55;18.75;;;9.65;;
10896;SDS011;5501;51.176;6.470;2023-02-15T23:07:56;19.70;;;9.57;;
10896;SDS011;5501;51.176;6.470;2023-02-15T23:12:58;16.95;;;9.48;;
10896;SDS011;5501;51.176;6.470;2023-02-15T23:23:33;16.10;;;8.43;;
10896;SDS011;5501;51.176;6.470;2023-02-15T23:28:35;15.98;;;8.57;;
10896;SDS011;5501;51.176;6.470;2023-02-15T23:33:37;17.10;;;9.05;;
10896;SDS011;5501;51.176;6.470;2023-02-15T23:38:38;21.20;;;9.85;;
10896;SDS011;5501;51.176;6.470;2023-02-15T23:43:40;20.35;;;9.30;;
10896;SDS011;5501;51.176;6.470;2023-02-15T23:48:42;25.08;;;9.15;;
10896;SDS011;5501;51.176;6.470;2023-02-15T23:53:44;17.55;;;10.10;;
10896;SDS011;5501;51.176;6.470;2023-02-15T23:58:46;22.58;;;8.98;;
